Terminal Aerodrome Forecast
Issued by NWS Shreveport, LA

Home | Current Version | Previous Version | Text Only | Print | Product List | Glossary On
Versions: 1 2 3 4 5 6 7 8 9 10 11 12 13 14 15 16
000
FTUS44 KSHV 281757
TAFELD
TAF
KELD 281757Z 2818/2918 15008KT P6SM FEW110 BKN250
     FM282300 10008KT P6SM SCT250
     FM290400 07005KT P6SM BKN012
      TEMPO 2908/2912 3SM BR OVC005
     FM291200 14006KT P6SM OVC050=

USA.gov is the U.S. government's official web portal to all federal, state and local government web resources and services.